KGCC

Gillette-Campbell County Airport

Gillette, Wyoming, USA
METAR KGCC 231353Z AUTO 00000KT 10SM CLR M23/M26 A3007 RMK AO2 SLP278 T12281256
Observed Flight Rules
Feb-23 @ 13:53 UTC (35 minutes ago) Visual Flight Rules
Wind Visibility Clouds
Calm 10 miles
  • Clear skies
Temperatures Readings
Current -23°C / -9°F
Dewpoint -26°C / -15°F
Humidity 77%
Altimeter 30.07" Hg
Pressure 1027.8 hPa
Elevation 1320
METAR KGCC 231353Z AUTO 00000KT 10SM CLR M23/M26 A3007 RMK AO2 SLP278 T12281256
Observed Flight Rules
Feb-23 @ 13:53 UTC
(35 minutes ago)
VFR
Wind Visibility
Calm 10 miles
Clouds
  • Clear skies
Temperature Dewpoint
-23°C / -9°F -26°C / -15°F
Humidity Altimeter Pressure
77% 30.07" Hg 1027.8 hPa